createdAt,value
2016-08-27T00:01:51.770Z,1008.36
2016-08-27T00:16:56.830Z,1008.33
2016-08-27T00:32:02.728Z,1008.22
2016-08-27T00:46:56.710Z,1008.28
2016-08-27T01:01:56.411Z,1008.48
2016-08-27T01:16:58.380Z,1008.58
2016-08-27T01:31:51.768Z,1008.64
2016-08-27T01:46:51.841Z,1008.59
2016-08-27T02:01:51.779Z,1008.47
2016-08-27T02:16:56.836Z,1008.66
2016-08-27T02:31:51.786Z,1008.69
2016-08-27T02:46:51.832Z,1008.59
2016-08-27T03:01:56.395Z,1008.65
2016-08-27T03:16:58.379Z,1008.6
2016-08-27T03:31:58.374Z,1008.84
2016-08-27T03:46:51.829Z,1008.83
2016-08-27T04:01:51.790Z,1008.82
2016-08-27T04:16:51.786Z,1008.89
2016-08-27T04:31:55.905Z,1008.81
2016-08-27T04:46:51.854Z,1008.91
2016-08-27T05:01:51.788Z,1008.94
2016-08-27T05:16:51.795Z,1009.02
2016-08-27T05:32:06.433Z,1009.13
2016-08-27T05:46:51.827Z,1009.2
2016-08-27T06:01:51.805Z,1008.99
2016-08-27T06:16:51.814Z,1009.17
2016-08-27T06:31:51.813Z,1009.05
2016-08-27T06:47:02.301Z,1009.07
2016-08-27T07:02:00.348Z,1009.24
2016-08-27T07:16:56.408Z,1009.13
2016-08-27T07:31:56.407Z,1009.02
2016-08-27T07:47:00.131Z,1009.08
2016-08-27T08:01:56.450Z,1009.1
2016-08-27T08:16:56.409Z,1009.05
2016-08-27T08:31:56.911Z,1009.04
2016-08-27T08:47:00.888Z,1008.89
2016-08-27T09:01:51.813Z,1008.72
2016-08-27T09:16:51.839Z,1008.61
2016-08-27T09:32:07.819Z,1008.54
2016-08-27T09:46:55.591Z,1008.35
2016-08-27T10:01:51.827Z,1008.32
2016-08-27T10:16:53.873Z,1008.18
2016-08-27T10:31:59.954Z,1008.23
2016-08-27T10:46:53.838Z,1008.11
2016-08-27T11:01:56.420Z,1008.17
2016-08-27T11:16:53.997Z,1008.06
2016-08-27T11:31:51.829Z,1007.9
2016-08-27T11:46:53.945Z,1007.85
2016-08-27T12:01:51.825Z,1007.76
2016-08-27T12:16:53.862Z,1007.63
2016-08-27T12:31:53.941Z,1007.52
2016-08-27T12:47:00.157Z,1007.29
2016-08-27T13:01:53.850Z,1007.22
2016-08-27T13:16:55.665Z,1007.01
2016-08-27T13:31:56.932Z,1006.82
2016-08-27T13:46:51.853Z,1006.82
2016-08-27T14:01:51.858Z,1006.61
2016-08-27T14:16:56.933Z,1006.54
2016-08-27T14:32:00.194Z,1006.51
2016-08-27T14:46:55.969Z,1006.27
2016-08-27T15:01:51.861Z,1006.23
2016-08-27T15:16:51.868Z,1005.99
2016-08-27T15:31:53.948Z,1005.97
2016-08-27T15:46:51.872Z,1005.91
2016-08-27T16:01:55.995Z,1005.79
2016-08-27T16:16:51.876Z,1005.59
2016-08-27T16:31:54.853Z,1005.38
2016-08-27T16:46:56.102Z,1005.33
2016-08-27T17:01:51.898Z,1005.27
2016-08-27T17:16:51.902Z,1005.28
2016-08-27T17:31:58.257Z,1005.13
2016-08-27T17:46:58.107Z,1005
2016-08-27T18:01:54.832Z,1005.08
2016-08-27T18:16:51.904Z,1005
2016-08-27T18:31:56.015Z,1004.87
2016-08-27T18:46:54.049Z,1004.84
2016-08-27T19:01:54.021Z,1004.84
2016-08-27T19:16:54.025Z,1004.81
2016-08-27T19:31:54.027Z,1004.82
2016-08-27T19:46:51.936Z,1004.82
2016-08-27T20:01:56.073Z,1004.69
2016-08-27T20:17:01.081Z,1004.6
2016-08-27T20:31:58.520Z,1004.54
2016-08-27T20:46:51.981Z,1004.45
2016-08-27T21:01:51.941Z,1004.31
2016-08-27T21:16:56.999Z,1004.22
2016-08-27T21:31:58.173Z,1004
2016-08-27T21:46:51.981Z,1003.92
2016-08-27T22:01:51.960Z,1004.04
2016-08-27T22:16:51.961Z,1003.8
2016-08-27T22:31:52.002Z,1003.54
2016-08-27T22:46:53.651Z,1003.59
2016-08-27T23:01:51.980Z,1003.52
2016-08-27T23:16:51.975Z,1003.22
2016-08-27T23:31:52.021Z,1002.98
2016-08-27T23:47:04.647Z,1002.86
